sensor_id;sensor_type;location;lat;lon;timestamp;P1;durP1;ratioP1;P2;durP2;ratioP2
65315;SDS011;51920;53.952;10.292;2023-03-23T00:01:08;15.80;;;8.45;;
65315;SDS011;51920;53.952;10.292;2023-03-23T00:03:45;15.13;;;7.95;;
65315;SDS011;51920;53.952;10.292;2023-03-23T00:06:12;17.07;;;7.93;;
65315;SDS011;51920;53.952;10.292;2023-03-23T00:08:43;15.02;;;7.80;;
65315;SDS011;51920;53.952;10.292;2023-03-23T00:11:20;15.80;;;7.95;;
65315;SDS011;51920;53.952;10.292;2023-03-23T00:13:47;16.40;;;7.88;;
65315;SDS011;51920;53.952;10.292;2023-03-23T00:16:18;16.92;;;8.10;;
65315;SDS011;51920;53.952;10.292;2023-03-23T00:18:54;16.50;;;8.10;;
65315;SDS011;51920;53.952;10.292;2023-03-23T00:21:24;18.13;;;8.27;;
65315;SDS011;51920;53.952;10.292;2023-03-23T00:23:58;17.50;;;8.13;;
65315;SDS011;51920;53.952;10.292;2023-03-23T00:26:44;16.60;;;8.10;;
65315;SDS011;51920;53.952;10.292;2023-03-23T00:29:19;18.85;;;8.30;;
65315;SDS011;51920;53.952;10.292;2023-03-23T00:31:49;19.37;;;8.40;;
65315;SDS011;51920;53.952;10.292;2023-03-23T00:34:17;18.02;;;8.65;;
65315;SDS011;51920;53.952;10.292;2023-03-23T00:36:45;15.80;;;8.43;;
65315;SDS011;51920;53.952;10.292;2023-03-23T00:39:15;17.30;;;8.77;;
65315;SDS011;51920;53.952;10.292;2023-03-23T00:41:45;18.65;;;8.55;;
65315;SDS011;51920;53.952;10.292;2023-03-23T00:44:12;19.73;;;8.57;;
65315;SDS011;51920;53.952;10.292;2023-03-23T00:46:43;15.90;;;8.20;;
65315;SDS011;51920;53.952;10.292;2023-03-23T00:49:23;16.85;;;8.93;;
65315;SDS011;51920;53.952;10.292;2023-03-23T00:51:54;17.50;;;8.57;;
65315;SDS011;51920;53.952;10.292;2023-03-23T00:54:22;18.95;;;8.98;;
65315;SDS011;51920;53.952;10.292;2023-03-23T00:56:48;19.80;;;8.43;;
65315;SDS011;51920;53.952;10.292;2023-03-23T00:59:14;20.00;;;8.75;;
65315;SDS011;51920;53.952;10.292;2023-03-23T01:01:40;15.57;;;8.23;;
65315;SDS011;51920;53.952;10.292;2023-03-23T01:04:06;16.58;;;8.43;;
65315;SDS011;51920;53.952;10.292;2023-03-23T01:06:34;17.38;;;8.75;;
65315;SDS011;51920;53.952;10.292;2023-03-23T01:09:04;19.53;;;8.90;;
65315;SDS011;51920;53.952;10.292;2023-03-23T01:11:31;16.35;;;8.38;;
65315;SDS011;51920;53.952;10.292;2023-03-23T01:13:57;17.85;;;8.80;;
65315;SDS011;51920;53.952;10.292;2023-03-23T01:16:23;17.95;;;8.68;;
65315;SDS011;51920;53.952;10.292;2023-03-23T01:18:49;18.30;;;9.10;;
65315;SDS011;51920;53.952;10.292;2023-03-23T01:21:17;17.63;;;8.65;;
65315;SDS011;51920;53.952;10.292;2023-03-23T01:23:44;16.92;;;9.02;;
65315;SDS011;51920;53.952;10.292;2023-03-23T01:26:11;17.17;;;8.80;;
65315;SDS011;51920;53.952;10.292;2023-03-23T01:28:41;16.33;;;8.43;;
65315;SDS011;51920;53.952;10.292;2023-03-23T01:31:09;18.65;;;9.23;;
65315;SDS011;51920;53.952;10.292;2023-03-23T01:33:40;19.08;;;8.90;;
65315;SDS011;51920;53.952;10.292;2023-03-23T01:36:09;17.75;;;8.85;;
65315;SDS011;51920;53.952;10.292;2023-03-23T01:38:41;20.13;;;9.13;;
65315;SDS011;51920;53.952;10.292;2023-03-23T01:41:08;18.17;;;9.13;;
65315;SDS011;51920;53.952;10.292;2023-03-23T01:43:34;20.15;;;9.68;;
65315;SDS011;51920;53.952;10.292;2023-03-23T01:46:01;17.17;;;8.50;;
65315;SDS011;51920;53.952;10.292;2023-03-23T01:48:31;19.17;;;9.57;;
65315;SDS011;51920;53.952;10.292;2023-03-23T01:51:02;18.42;;;9.93;;
65315;SDS011;51920;53.952;10.292;2023-03-23T01:53:40;17.65;;;9.30;;
65315;SDS011;51920;53.952;10.292;2023-03-23T01:56:09;18.17;;;9.50;;
65315;SDS011;51920;53.952;10.292;2023-03-23T01:58:37;19.63;;;9.60;;
65315;SDS011;51920;53.952;10.292;2023-03-23T02:01:05;20.92;;;10.02;;
65315;SDS011;51920;53.952;10.292;2023-03-23T02:03:33;20.30;;;9.75;;
65315;SDS011;51920;53.952;10.292;2023-03-23T02:06:01;19.75;;;9.45;;
65315;SDS011;51920;53.952;10.292;2023-03-23T02:08:51;19.73;;;9.95;;
65315;SDS011;51920;53.952;10.292;2023-03-23T02:11:19;20.73;;;9.97;;
65315;SDS011;51920;53.952;10.292;2023-03-23T02:13:47;19.95;;;10.27;;
65315;SDS011;51920;53.952;10.292;2023-03-23T02:16:20;17.98;;;9.48;;
65315;SDS011;51920;53.952;10.292;2023-03-23T02:22:00;20.85;;;10.35;;
65315;SDS011;51920;53.952;10.292;2023-03-23T02:24:42;21.87;;;10.33;;
65315;SDS011;51920;53.952;10.292;2023-03-23T02:33:07;25.63;;;11.25;;
65315;SDS011;51920;53.952;10.292;2023-03-23T02:35:35;22.92;;;11.05;;
65315;SDS011;51920;53.952;10.292;2023-03-23T02:38:13;22.37;;;10.77;;
65315;SDS011;51920;53.952;10.292;2023-03-23T02:40:43;21.10;;;10.65;;
65315;SDS011;51920;53.952;10.292;2023-03-23T02:43:16;20.73;;;10.20;;
65315;SDS011;51920;53.952;10.292;2023-03-23T02:45:45;21.73;;;11.13;;
65315;SDS011;51920;53.952;10.292;2023-03-23T02:48:12;20.88;;;10.73;;
65315;SDS011;51920;53.952;10.292;2023-03-23T02:50:42;21.63;;;10.53;;
65315;SDS011;51920;53.952;10.292;2023-03-23T02:53:11;21.45;;;11.63;;
65315;SDS011;51920;53.952;10.292;2023-03-23T02:55:39;22.55;;;11.45;;
65315;SDS011;51920;53.952;10.292;2023-03-23T02:58:12;24.63;;;12.23;;
65315;SDS011;51920;53.952;10.292;2023-03-23T03:00:39;22.15;;;11.57;;
65315;SDS011;51920;53.952;10.292;2023-03-23T03:03:07;24.67;;;11.70;;
65315;SDS011;51920;53.952;10.292;2023-03-23T03:05:40;23.08;;;12.00;;
65315;SDS011;51920;53.952;10.292;2023-03-23T03:08:31;23.80;;;12.73;;
65315;SDS011;51920;53.952;10.292;2023-03-23T03:11:02;25.30;;;12.18;;
65315;SDS011;51920;53.952;10.292;2023-03-23T03:16:35;23.13;;;11.80;;
65315;SDS011;51920;53.952;10.292;2023-03-23T03:19:07;23.42;;;11.85;;
65315;SDS011;51920;53.952;10.292;2023-03-23T03:21:43;22.35;;;11.43;;
65315;SDS011;51920;53.952;10.292;2023-03-23T03:24:14;22.35;;;11.52;;
65315;SDS011;51920;53.952;10.292;2023-03-23T03:26:45;22.38;;;11.57;;
65315;SDS011;51920;53.952;10.292;2023-03-23T03:29:30;20.83;;;10.67;;
65315;SDS011;51920;53.952;10.292;2023-03-23T03:31:59;19.80;;;9.85;;
65315;SDS011;51920;53.952;10.292;2023-03-23T03:34:30;17.50;;;9.05;;
65315;SDS011;51920;53.952;10.292;2023-03-23T03:36:57;18.73;;;9.77;;
65315;SDS011;51920;53.952;10.292;2023-03-23T03:39:25;18.83;;;9.68;;
65315;SDS011;51920;53.952;10.292;2023-03-23T03:41:51;18.20;;;9.10;;
65315;SDS011;51920;53.952;10.292;2023-03-23T03:44:17;17.85;;;9.50;;
65315;SDS011;51920;53.952;10.292;2023-03-23T03:46:42;15.37;;;8.63;;
65315;SDS011;51920;53.952;10.292;2023-03-23T03:49:09;19.67;;;10.30;;
65315;SDS011;51920;53.952;10.292;2023-03-23T03:51:40;19.13;;;10.05;;
65315;SDS011;51920;53.952;10.292;2023-03-23T03:54:10;18.70;;;9.80;;
65315;SDS011;51920;53.952;10.292;2023-03-23T03:56:36;19.57;;;10.20;;
65315;SDS011;51920;53.952;10.292;2023-03-23T03:59:29;19.55;;;10.20;;
65315;SDS011;51920;53.952;10.292;2023-03-23T04:02:16;21.00;;;11.18;;
65315;SDS011;51920;53.952;10.292;2023-03-23T04:04:46;19.67;;;11.30;;
65315;SDS011;51920;53.952;10.292;2023-03-23T04:07:13;22.65;;;11.98;;
65315;SDS011;51920;53.952;10.292;2023-03-23T04:09:42;24.10;;;11.90;;
65315;SDS011;51920;53.952;10.292;2023-03-23T04:12:09;21.40;;;11.73;;
65315;SDS011;51920;53.952;10.292;2023-03-23T04:15:07;26.20;;;13.10;;
65315;SDS011;51920;53.952;10.292;2023-03-23T04:17:35;23.35;;;12.43;;
65315;SDS011;51920;53.952;10.292;2023-03-23T04:20:02;21.77;;;11.75;;
65315;SDS011;51920;53.952;10.292;2023-03-23T04:22:46;22.53;;;11.87;;
65315;SDS011;51920;53.952;10.292;2023-03-23T04:25:18;23.83;;;11.80;;
65315;SDS011;51920;53.952;10.292;2023-03-23T04:27:48;24.52;;;12.65;;
65315;SDS011;51920;53.952;10.292;2023-03-23T04:30:24;24.17;;;11.88;;
65315;SDS011;51920;53.952;10.292;2023-03-23T04:33:08;22.98;;;12.65;;
65315;SDS011;51920;53.952;10.292;2023-03-23T04:35:40;21.97;;;12.03;;
65315;SDS011;51920;53.952;10.292;2023-03-23T04:38:34;22.13;;;11.88;;
65315;SDS011;51920;53.952;10.292;2023-03-23T04:41:07;22.95;;;12.82;;
65315;SDS011;51920;53.952;10.292;2023-03-23T04:43:44;21.08;;;12.05;;
65315;SDS011;51920;53.952;10.292;2023-03-23T04:46:27;21.45;;;12.32;;
65315;SDS011;51920;53.952;10.292;2023-03-23T04:48:57;21.57;;;12.30;;
65315;SDS011;51920;53.952;10.292;2023-03-23T04:51:29;23.48;;;12.52;;
65315;SDS011;51920;53.952;10.292;2023-03-23T04:53:59;24.02;;;12.98;;
65315;SDS011;51920;53.952;10.292;2023-03-23T04:56:28;23.80;;;12.80;;
65315;SDS011;51920;53.952;10.292;2023-03-23T04:58:55;22.05;;;12.52;;
65315;SDS011;51920;53.952;10.292;2023-03-23T05:01:29;24.57;;;13.00;;
65315;SDS011;51920;53.952;10.292;2023-03-23T05:04:15;21.85;;;12.13;;
65315;SDS011;51920;53.952;10.292;2023-03-23T05:06:46;22.88;;;13.00;;
65315;SDS011;51920;53.952;10.292;2023-03-23T05:09:18;23.17;;;12.68;;
65315;SDS011;51920;53.952;10.292;2023-03-23T05:11:46;24.20;;;13.13;;
65315;SDS011;51920;53.952;10.292;2023-03-23T05:14:12;26.40;;;13.70;;
65315;SDS011;51920;53.952;10.292;2023-03-23T05:16:38;24.08;;;13.18;;
65315;SDS011;51920;53.952;10.292;2023-03-23T05:19:06;24.20;;;13.80;;
65315;SDS011;51920;53.952;10.292;2023-03-23T05:21:34;23.03;;;13.20;;
65315;SDS011;51920;53.952;10.292;2023-03-23T05:24:00;22.27;;;12.65;;
65315;SDS011;51920;53.952;10.292;2023-03-23T05:26:28;23.77;;;12.80;;
65315;SDS011;51920;53.952;10.292;2023-03-23T05:29:03;23.40;;;12.98;;
65315;SDS011;51920;53.952;10.292;2023-03-23T05:32:07;21.30;;;12.53;;
65315;SDS011;51920;53.952;10.292;2023-03-23T05:34:36;23.13;;;12.77;;
65315;SDS011;51920;53.952;10.292;2023-03-23T05:37:02;22.38;;;13.30;;
65315;SDS011;51920;53.952;10.292;2023-03-23T05:39:36;21.92;;;12.60;;
65315;SDS011;51920;53.952;10.292;2023-03-23T05:42:34;22.10;;;12.45;;
65315;SDS011;51920;53.952;10.292;2023-03-23T05:45:09;21.63;;;11.77;;
65315;SDS011;51920;53.952;10.292;2023-03-23T05:47:37;22.23;;;12.05;;
65315;SDS011;51920;53.952;10.292;2023-03-23T05:50:08;20.17;;;11.85;;
65315;SDS011;51920;53.952;10.292;2023-03-23T05:52:37;21.05;;;12.02;;
65315;SDS011;51920;53.952;10.292;2023-03-23T05:55:06;25.38;;;13.07;;
65315;SDS011;51920;53.952;10.292;2023-03-23T05:57:35;20.07;;;11.40;;
65315;SDS011;51920;53.952;10.292;2023-03-23T06:00:16;21.70;;;11.90;;
65315;SDS011;51920;53.952;10.292;2023-03-23T06:02:54;21.10;;;12.15;;
65315;SDS011;51920;53.952;10.292;2023-03-23T06:05:29;20.45;;;11.88;;
65315;SDS011;51920;53.952;10.292;2023-03-23T06:07:56;21.08;;;12.40;;
65315;SDS011;51920;53.952;10.292;2023-03-23T06:10:22;20.87;;;12.20;;
65315;SDS011;51920;53.952;10.292;2023-03-23T06:12:55;23.10;;;12.35;;
65315;SDS011;51920;53.952;10.292;2023-03-23T06:15:40;20.23;;;12.48;;
65315;SDS011;51920;53.952;10.292;2023-03-23T06:18:24;21.73;;;12.10;;
65315;SDS011;51920;53.952;10.292;2023-03-23T06:21:05;22.47;;;12.43;;
65315;SDS011;51920;53.952;10.292;2023-03-23T06:23:49;22.23;;;12.57;;
65315;SDS011;51920;53.952;10.292;2023-03-23T06:26:16;22.67;;;13.60;;
65315;SDS011;51920;53.952;10.292;2023-03-23T06:28:47;19.08;;;12.63;;
65315;SDS011;51920;53.952;10.292;2023-03-23T06:31:14;19.30;;;11.70;;
65315;SDS011;51920;53.952;10.292;2023-03-23T06:33:40;19.33;;;11.90;;
65315;SDS011;51920;53.952;10.292;2023-03-23T06:36:24;18.73;;;11.43;;
65315;SDS011;51920;53.952;10.292;2023-03-23T06:39:11;18.80;;;12.10;;
65315;SDS011;51920;53.952;10.292;2023-03-23T06:41:52;18.90;;;11.68;;
65315;SDS011;51920;53.952;10.292;2023-03-23T06:44:18;16.37;;;11.27;;
65315;SDS011;51920;53.952;10.292;2023-03-23T06:46:44;14.85;;;10.48;;
65315;SDS011;51920;53.952;10.292;2023-03-23T06:49:24;16.13;;;9.73;;
65315;SDS011;51920;53.952;10.292;2023-03-23T06:51:57;14.48;;;10.27;;
65315;SDS011;51920;53.952;10.292;2023-03-23T06:54:27;13.13;;;9.20;;
65315;SDS011;51920;53.952;10.292;2023-03-23T06:56:53;15.05;;;9.63;;
65315;SDS011;51920;53.952;10.292;2023-03-23T06:59:18;14.13;;;9.27;;
65315;SDS011;51920;53.952;10.292;2023-03-23T07:01:45;13.70;;;9.07;;
65315;SDS011;51920;53.952;10.292;2023-03-23T07:04:12;12.35;;;8.32;;
65315;SDS011;51920;53.952;10.292;2023-03-23T07:06:48;13.93;;;8.55;;
65315;SDS011;51920;53.952;10.292;2023-03-23T07:09:13;12.93;;;8.23;;
65315;SDS011;51920;53.952;10.292;2023-03-23T07:11:40;12.13;;;7.88;;
65315;SDS011;51920;53.952;10.292;2023-03-23T07:14:14;11.75;;;8.02;;
65315;SDS011;51920;53.952;10.292;2023-03-23T07:16:40;11.30;;;7.83;;
65315;SDS011;51920;53.952;10.292;2023-03-23T07:19:06;13.32;;;7.80;;
65315;SDS011;51920;53.952;10.292;2023-03-23T07:21:32;10.57;;;7.33;;
65315;SDS011;51920;53.952;10.292;2023-03-23T07:23:57;9.63;;;7.03;;
65315;SDS011;51920;53.952;10.292;2023-03-23T07:26:36;11.05;;;7.60;;
65315;SDS011;51920;53.952;10.292;2023-03-23T07:29:03;13.60;;;7.00;;
65315;SDS011;51920;53.952;10.292;2023-03-23T07:31:34;10.02;;;6.80;;
65315;SDS011;51920;53.952;10.292;2023-03-23T07:34:01;9.80;;;6.57;;
65315;SDS011;51920;53.952;10.292;2023-03-23T07:36:38;10.90;;;7.00;;
65315;SDS011;51920;53.952;10.292;2023-03-23T07:39:05;9.90;;;6.53;;
65315;SDS011;51920;53.952;10.292;2023-03-23T07:41:31;9.82;;;6.45;;
65315;SDS011;51920;53.952;10.292;2023-03-23T07:44:01;10.48;;;6.68;;
65315;SDS011;51920;53.952;10.292;2023-03-23T07:46:33;10.47;;;6.63;;
65315;SDS011;51920;53.952;10.292;2023-03-23T07:49:21;10.48;;;6.55;;
65315;SDS011;51920;53.952;10.292;2023-03-23T07:51:58;10.80;;;6.70;;
65315;SDS011;51920;53.952;10.292;2023-03-23T07:54:26;11.20;;;7.00;;
65315;SDS011;51920;53.952;10.292;2023-03-23T07:56:57;7.88;;;4.25;;
65315;SDS011;51920;53.952;10.292;2023-03-23T07:59:26;8.17;;;3.30;;
65315;SDS011;51920;53.952;10.292;2023-03-23T08:01:52;6.10;;;2.53;;
65315;SDS011;51920;53.952;10.292;2023-03-23T08:04:44;7.50;;;3.03;;
65315;SDS011;51920;53.952;10.292;2023-03-23T08:07:34;7.43;;;2.00;;
65315;SDS011;51920;53.952;10.292;2023-03-23T08:10:29;4.25;;;2.10;;
65315;SDS011;51920;53.952;10.292;2023-03-23T08:13:20;3.63;;;1.67;;
65315;SDS011;51920;53.952;10.292;2023-03-23T08:16:03;2.92;;;1.50;;
65315;SDS011;51920;53.952;10.292;2023-03-23T08:19:01;5.18;;;1.90;;
65315;SDS011;51920;53.952;10.292;2023-03-23T08:21:44;1.77;;;1.50;;
65315;SDS011;51920;53.952;10.292;2023-03-23T08:24:10;3.40;;;1.60;;
65315;SDS011;51920;53.952;10.292;2023-03-23T08:26:56;4.65;;;1.80;;
65315;SDS011;51920;53.952;10.292;2023-03-23T08:29:31;2.95;;;2.08;;
65315;SDS011;51920;53.952;10.292;2023-03-23T08:32:21;2.37;;;1.90;;
65315;SDS011;51920;53.952;10.292;2023-03-23T08:35:13;3.90;;;2.58;;
65315;SDS011;51920;53.952;10.292;2023-03-23T08:38:12;4.90;;;2.70;;
65315;SDS011;51920;53.952;10.292;2023-03-23T08:40:51;4.05;;;2.78;;
65315;SDS011;51920;53.952;10.292;2023-03-23T08:43:30;5.18;;;2.78;;
65315;SDS011;51920;53.952;10.292;2023-03-23T08:46:26;7.53;;;3.10;;
65315;SDS011;51920;53.952;10.292;2023-03-23T08:49:07;5.35;;;3.20;;
65315;SDS011;51920;53.952;10.292;2023-03-23T08:51:56;6.15;;;3.75;;
65315;SDS011;51920;53.952;10.292;2023-03-23T08:54:30;6.72;;;3.75;;
65315;SDS011;51920;53.952;10.292;2023-03-23T08:56:59;10.03;;;3.90;;
65315;SDS011;51920;53.952;10.292;2023-03-23T08:59:35;5.07;;;3.10;;
65315;SDS011;51920;53.952;10.292;2023-03-23T09:02:36;5.85;;;2.90;;
65315;SDS011;51920;53.952;10.292;2023-03-23T09:05:13;4.95;;;3.00;;
65315;SDS011;51920;53.952;10.292;2023-03-23T09:07:59;5.97;;;3.15;;
65315;SDS011;51920;53.952;10.292;2023-03-23T09:10:25;5.13;;;2.80;;
65315;SDS011;51920;53.952;10.292;2023-03-23T09:12:53;5.95;;;2.42;;
65315;SDS011;51920;53.952;10.292;2023-03-23T09:15:20;5.90;;;2.57;;
65315;SDS011;51920;53.952;10.292;2023-03-23T09:17:47;5.53;;;2.95;;
65315;SDS011;51920;53.952;10.292;2023-03-23T09:20:15;6.32;;;2.65;;
65315;SDS011;51920;53.952;10.292;2023-03-23T09:22:44;6.43;;;2.20;;
65315;SDS011;51920;53.952;10.292;2023-03-23T09:25:13;5.45;;;2.00;;
65315;SDS011;51920;53.952;10.292;2023-03-23T09:27:40;4.07;;;1.80;;
65315;SDS011;51920;53.952;10.292;2023-03-23T09:30:08;9.77;;;2.30;;
65315;SDS011;51920;53.952;10.292;2023-03-23T09:32:36;6.50;;;2.03;;
65315;SDS011;51920;53.952;10.292;2023-03-23T09:35:03;5.70;;;2.00;;
65315;SDS011;51920;53.952;10.292;2023-03-23T09:37:35;5.47;;;2.05;;
65315;SDS011;51920;53.952;10.292;2023-03-23T09:40:02;6.83;;;2.00;;
65315;SDS011;51920;53.952;10.292;2023-03-23T09:45:23;6.20;;;2.20;;
65315;SDS011;51920;53.952;10.292;2023-03-23T09:50:24;6.93;;;2.38;;
65315;SDS011;51920;53.952;10.292;2023-03-23T09:53:02;5.50;;;2.00;;
65315;SDS011;51920;53.952;10.292;2023-03-23T09:55:34;5.47;;;1.88;;
65315;SDS011;51920;53.952;10.292;2023-03-23T10:00:58;5.85;;;1.77;;
65315;SDS011;51920;53.952;10.292;2023-03-23T10:03:26;5.13;;;2.42;;
65315;SDS011;51920;53.952;10.292;2023-03-23T10:05:57;7.43;;;1.97;;
65315;SDS011;51920;53.952;10.292;2023-03-23T10:08:27;6.45;;;1.92;;
65315;SDS011;51920;53.952;10.292;2023-03-23T10:16:22;5.20;;;2.20;;
65315;SDS011;51920;53.952;10.292;2023-03-23T10:18:58;8.13;;;2.20;;
65315;SDS011;51920;53.952;10.292;2023-03-23T10:21:27;4.47;;;2.30;;
65315;SDS011;51920;53.952;10.292;2023-03-23T10:23:59;5.85;;;2.30;;
65315;SDS011;51920;53.952;10.292;2023-03-23T10:29:20;6.50;;;2.50;;
65315;SDS011;51920;53.952;10.292;2023-03-23T10:31:59;6.57;;;2.40;;
65315;SDS011;51920;53.952;10.292;2023-03-23T10:34:46;8.93;;;2.70;;
65315;SDS011;51920;53.952;10.292;2023-03-23T10:39:51;7.47;;;2.50;;
65315;SDS011;51920;53.952;10.292;2023-03-23T10:42:24;6.38;;;2.60;;
65315;SDS011;51920;53.952;10.292;2023-03-23T10:44:55;7.20;;;2.30;;
65315;SDS011;51920;53.952;10.292;2023-03-23T10:47:21;7.32;;;2.17;;
65315;SDS011;51920;53.952;10.292;2023-03-23T10:49:58;5.68;;;2.67;;
65315;SDS011;51920;53.952;10.292;2023-03-23T10:52:36;8.20;;;2.38;;
65315;SDS011;51920;53.952;10.292;2023-03-23T10:55:11;7.50;;;2.20;;
65315;SDS011;51920;53.952;10.292;2023-03-23T10:57:41;7.33;;;2.00;;
65315;SDS011;51920;53.952;10.292;2023-03-23T11:00:23;8.55;;;2.30;;
65315;SDS011;51920;53.952;10.292;2023-03-23T11:05:38;6.43;;;2.13;;
65315;SDS011;51920;53.952;10.292;2023-03-23T11:08:20;5.28;;;1.90;;
65315;SDS011;51920;53.952;10.292;2023-03-23T11:10:53;6.40;;;2.30;;
65315;SDS011;51920;53.952;10.292;2023-03-23T11:13:19;8.93;;;1.90;;
65315;SDS011;51920;53.952;10.292;2023-03-23T11:15:48;7.50;;;2.20;;
65315;SDS011;51920;53.952;10.292;2023-03-23T11:18:21;8.93;;;2.22;;
65315;SDS011;51920;53.952;10.292;2023-03-23T11:20:53;7.60;;;2.00;;
65315;SDS011;51920;53.952;10.292;2023-03-23T11:23:55;4.77;;;1.90;;
65315;SDS011;51920;53.952;10.292;2023-03-23T11:26:16;6.78;;;1.90;;
65315;SDS011;51920;53.952;10.292;2023-03-23T11:28:47;8.60;;;2.13;;
65315;SDS011;51920;53.952;10.292;2023-03-23T11:31:17;9.10;;;2.30;;
65315;SDS011;51920;53.952;10.292;2023-03-23T11:33:56;4.47;;;1.80;;
65315;SDS011;51920;53.952;10.292;2023-03-23T11:36:36;4.90;;;1.80;;
65315;SDS011;51920;53.952;10.292;2023-03-23T11:39:18;6.20;;;2.20;;
65315;SDS011;51920;53.952;10.292;2023-03-23T11:41:46;9.80;;;2.42;;
65315;SDS011;51920;53.952;10.292;2023-03-23T11:44:13;6.47;;;2.50;;
65315;SDS011;51920;53.952;10.292;2023-03-23T11:49:07;7.63;;;2.10;;
65315;SDS011;51920;53.952;10.292;2023-03-23T11:51:51;6.30;;;2.20;;
65315;SDS011;51920;53.952;10.292;2023-03-23T11:54:32;7.50;;;1.92;;
65315;SDS011;51920;53.952;10.292;2023-03-23T11:56:59;8.80;;;2.33;;
65315;SDS011;51920;53.952;10.292;2023-03-23T11:59:28;6.82;;;2.15;;
65315;SDS011;51920;53.952;10.292;2023-03-23T12:01:58;7.32;;;2.10;;
65315;SDS011;51920;53.952;10.292;2023-03-23T12:04:52;12.05;;;2.72;;
65315;SDS011;51920;53.952;10.292;2023-03-23T12:13:15;5.50;;;1.80;;
65315;SDS011;51920;53.952;10.292;2023-03-23T12:21:32;6.97;;;2.05;;
65315;SDS011;51920;53.952;10.292;2023-03-23T12:33:17;10.57;;;2.00;;
65315;SDS011;51920;53.952;10.292;2023-03-23T12:36:25;7.78;;;2.22;;
65315;SDS011;51920;53.952;10.292;2023-03-23T12:41:49;9.45;;;2.30;;
65315;SDS011;51920;53.952;10.292;2023-03-23T12:44:26;9.77;;;2.10;;
65315;SDS011;51920;53.952;10.292;2023-03-23T12:47:07;9.55;;;2.10;;
65315;SDS011;51920;53.952;10.292;2023-03-23T12:49:42;7.28;;;2.10;;
65315;SDS011;51920;53.952;10.292;2023-03-23T12:55:28;8.20;;;2.20;;
65315;SDS011;51920;53.952;10.292;2023-03-23T12:58:07;8.05;;;2.30;;
65315;SDS011;51920;53.952;10.292;2023-03-23T13:03:27;8.40;;;1.90;;
65315;SDS011;51920;53.952;10.292;2023-03-23T13:06:05;8.27;;;2.23;;
65315;SDS011;51920;53.952;10.292;2023-03-23T13:08:38;7.35;;;2.17;;
65315;SDS011;51920;53.952;10.292;2023-03-23T13:11:11;7.80;;;2.25;;
65315;SDS011;51920;53.952;10.292;2023-03-23T13:13:51;7.03;;;2.20;;
65315;SDS011;51920;53.952;10.292;2023-03-23T13:16:30;9.85;;;2.58;;
65315;SDS011;51920;53.952;10.292;2023-03-23T13:19:08;9.67;;;2.23;;
65315;SDS011;51920;53.952;10.292;2023-03-23T13:24:59;7.57;;;2.33;;
65315;SDS011;51920;53.952;10.292;2023-03-23T13:27:27;8.43;;;2.30;;
65315;SDS011;51920;53.952;10.292;2023-03-23T13:29:55;5.80;;;2.10;;
65315;SDS011;51920;53.952;10.292;2023-03-23T13:32:41;8.60;;;2.23;;
65315;SDS011;51920;53.952;10.292;2023-03-23T13:35:11;8.30;;;1.95;;
65315;SDS011;51920;53.952;10.292;2023-03-23T13:37:47;8.70;;;2.25;;
65315;SDS011;51920;53.952;10.292;2023-03-23T13:40:24;7.18;;;2.28;;
65315;SDS011;51920;53.952;10.292;2023-03-23T13:42:56;8.45;;;2.20;;
65315;SDS011;51920;53.952;10.292;2023-03-23T13:48:04;9.57;;;2.05;;
65315;SDS011;51920;53.952;10.292;2023-03-23T13:50:43;8.20;;;2.10;;
65315;SDS011;51920;53.952;10.292;2023-03-23T13:53:15;7.93;;;2.17;;
65315;SDS011;51920;53.952;10.292;2023-03-23T13:55:49;10.35;;;2.38;;
65315;SDS011;51920;53.952;10.292;2023-03-23T13:58:21;10.03;;;2.00;;
65315;SDS011;51920;53.952;10.292;2023-03-23T14:00:49;9.10;;;2.00;;
65315;SDS011;51920;53.952;10.292;2023-03-23T14:03:33;7.05;;;2.28;;
65315;SDS011;51920;53.952;10.292;2023-03-23T14:06:06;9.02;;;2.55;;
65315;SDS011;51920;53.952;10.292;2023-03-23T14:08:55;9.15;;;2.60;;
65315;SDS011;51920;53.952;10.292;2023-03-23T14:11:22;6.23;;;2.00;;
65315;SDS011;51920;53.952;10.292;2023-03-23T14:19:03;6.80;;;2.10;;
65315;SDS011;51920;53.952;10.292;2023-03-23T14:21:39;8.32;;;2.30;;
65315;SDS011;51920;53.952;10.292;2023-03-23T14:24:11;10.37;;;2.43;;
65315;SDS011;51920;53.952;10.292;2023-03-23T14:26:40;8.43;;;2.25;;
65315;SDS011;51920;53.952;10.292;2023-03-23T14:29:09;7.35;;;2.33;;
65315;SDS011;51920;53.952;10.292;2023-03-23T14:31:35;5.15;;;1.80;;
65315;SDS011;51920;53.952;10.292;2023-03-23T14:34:12;5.73;;;2.00;;
65315;SDS011;51920;53.952;10.292;2023-03-23T14:36:40;5.97;;;2.00;;
65315;SDS011;51920;53.952;10.292;2023-03-23T14:41:50;7.78;;;2.47;;
65315;SDS011;51920;53.952;10.292;2023-03-23T14:44:20;5.03;;;2.35;;
65315;SDS011;51920;53.952;10.292;2023-03-23T14:46:51;7.10;;;2.40;;
65315;SDS011;51920;53.952;10.292;2023-03-23T14:49:19;5.53;;;2.80;;
65315;SDS011;51920;53.952;10.292;2023-03-23T14:51:53;6.43;;;2.80;;
65315;SDS011;51920;53.952;10.292;2023-03-23T14:54:24;6.72;;;2.70;;
65315;SDS011;51920;53.952;10.292;2023-03-23T14:56:51;8.48;;;3.10;;
65315;SDS011;51920;53.952;10.292;2023-03-23T14:59:17;8.57;;;3.00;;
65315;SDS011;51920;53.952;10.292;2023-03-23T15:01:43;6.88;;;2.70;;
65315;SDS011;51920;53.952;10.292;2023-03-23T15:04:22;7.82;;;2.80;;
65315;SDS011;51920;53.952;10.292;2023-03-23T15:07:00;8.57;;;2.87;;
65315;SDS011;51920;53.952;10.292;2023-03-23T15:09:28;5.72;;;2.58;;
65315;SDS011;51920;53.952;10.292;2023-03-23T15:11:58;8.38;;;2.88;;
65315;SDS011;51920;53.952;10.292;2023-03-23T15:14:27;7.95;;;2.92;;
65315;SDS011;51920;53.952;10.292;2023-03-23T15:17:00;6.32;;;3.05;;
65315;SDS011;51920;53.952;10.292;2023-03-23T15:19:28;8.87;;;3.30;;
65315;SDS011;51920;53.952;10.292;2023-03-23T15:22:06;8.52;;;3.25;;
65315;SDS011;51920;53.952;10.292;2023-03-23T15:24:39;10.80;;;3.30;;
65315;SDS011;51920;53.952;10.292;2023-03-23T15:27:11;7.57;;;3.35;;
65315;SDS011;51920;53.952;10.292;2023-03-23T15:29:47;8.32;;;3.28;;
65315;SDS011;51920;53.952;10.292;2023-03-23T15:32:20;9.37;;;3.60;;
65315;SDS011;51920;53.952;10.292;2023-03-23T15:34:46;7.47;;;3.40;;
65315;SDS011;51920;53.952;10.292;2023-03-23T15:37:25;9.05;;;3.45;;
65315;SDS011;51920;53.952;10.292;2023-03-23T15:39:59;7.47;;;3.10;;
65315;SDS011;51920;53.952;10.292;2023-03-23T15:42:27;7.78;;;3.35;;
65315;SDS011;51920;53.952;10.292;2023-03-23T15:47:51;8.88;;;3.60;;
65315;SDS011;51920;53.952;10.292;2023-03-23T15:50:32;7.63;;;3.72;;
65315;SDS011;51920;53.952;10.292;2023-03-23T15:52:59;10.10;;;3.40;;
65315;SDS011;51920;53.952;10.292;2023-03-23T15:55:28;9.48;;;3.70;;
65315;SDS011;51920;53.952;10.292;2023-03-23T15:57:55;8.93;;;3.35;;
65315;SDS011;51920;53.952;10.292;2023-03-23T16:00:24;9.77;;;3.53;;
65315;SDS011;51920;53.952;10.292;2023-03-23T16:02:54;10.98;;;4.13;;
65315;SDS011;51920;53.952;10.292;2023-03-23T16:05:24;10.47;;;3.57;;
65315;SDS011;51920;53.952;10.292;2023-03-23T16:07:50;10.63;;;3.70;;
65315;SDS011;51920;53.952;10.292;2023-03-23T16:10:18;8.77;;;3.28;;
65315;SDS011;51920;53.952;10.292;2023-03-23T16:12:47;9.77;;;3.45;;
65315;SDS011;51920;53.952;10.292;2023-03-23T16:15:14;9.40;;;3.55;;
65315;SDS011;51920;53.952;10.292;2023-03-23T16:17:41;8.40;;;3.57;;
65315;SDS011;51920;53.952;10.292;2023-03-23T16:20:12;10.35;;;3.50;;